Anadarko, Oklahoma
Current Conditions -  °F | °C
As of 6:58 AM on Tuesday 21 Oct 2014 (Local Time) from KFSI Reporting Station
Clear Clear  
Wind Chill: 57°   Ceiling: Unl
Heat Index: 57°   Visibility: 10mi
Dew Point: 57°   Wind: 0mph
Humidity: 98%   Direction: NA
Pressure: 30.06"   Gusts: NA
Location:  35.07°N, 98.24°W
Report Text: KFSI 211158Z AUTO 00000KT 10SM CLR 14/14 A3006 RMK AO2 SLP175 T01410138 10184 20141 52007
Loading
Personal Weather Stations






























Interactive Weather Map New forecast layout! Learn more

10-Day Weather Forecast

Advertisements
Track Severe Weather on mobile